Aviation Digital Data Service (ADDS)

Output produced by METARs form (0744 UTC 28 February 2017)
found at http://aviationweather.gov/adds/metars/
 
KALB 280538Z 2806/0106 19005KT P6SM OVC100 
     FM280900 16004KT P6SM VCSH OVC050 
     FM281600 15009KT P6SM BKN050 OVC100 
     FM010000 16011G17KT P6SM SCT030 OVC050 
     FM010300 17012G18KT 4SM -RA BR SCT015 OVC030